Home > Products > Valid Products > TAF

000
FTUS41 KRNK 201526 AAB
TAFLYH
TAF AMD
KLYH 201526Z 2015/2112 15005KT P6SM OVC010
     FM201630 VRB04KT P6SM SCT015 OVC050
     FM201900 21005KT P6SM VCTS BKN050CB
     FM202300 VRB03KT P6SM SCT060 BKN200
     FM210600 00000KT 2SM BR SCT100=



000
FTUS41 KRNK 201526 AAB
TAFLYH
TAF AMD
KLYH 201526Z 2015/2112 15005KT P6SM OVC010
     FM201630 VRB04KT P6SM SCT015 OVC050
     FM201900 21005KT P6SM VCTS BKN050CB
     FM202300 VRB03KT P6SM SCT060 BKN200
     FM210600 00000KT 2SM BR SCT100=



000
FTUS41 KRNK 201353 AAA
TAFLWB
TAF AMD
KLWB 201353Z 2014/2112 VRB04KT 4SM BR SCT003 OVC012
      TEMPO 2014/2015 2SM -SHRA OVC003
     FM201500 VRB03KT 4SM SHRA OVC015
     FM201700 26005KT P6SM VCTS SCT020 BKN050CB
     FM202200 VRB03KT P6SM SCT060 BKN200
     FM210300 00000KT 4SM BR SCT007
     FM210900 00000KT 1/4SM FG VV002=



000
FTUS41 KRNK 201350 AAA
TAFDAN
TAF AMD
KDAN 201350Z 2014/2112 VRB03KT P6SM SCT018 BKN050
      TEMPO 2014/2015 BKN007
     FM202000 23006KT P6SM VCTS BKN060CB
     FM210100 VRB03KT P6SM BKN080
     FM210600 00000KT 2SM BR SCT100=



000
FTUS41 KRNK 201349 AAA
TAFLYH
TAF AMD
KLYH 201349Z 2014/2112 VRB03KT 5SM BR BKN006 OVC015
     FM201500 VRB03KT P6SM SCT015 OVC050
     FM201900 21005KT P6SM VCTS BKN050CB
     FM202300 VRB03KT P6SM SCT060 BKN200
     FM210600 00000KT 2SM BR SCT100=



000
FTUS41 KRNK 201349 AAA
TAFLYH
TAF AMD
KLYH 201349Z 2014/2112 VRB03KT 5SM BR BKN006 OVC015
     FM201500 VRB03KT P6SM SCT015 OVC050
     FM201900 21005KT P6SM VCTS BKN050CB
     FM202300 VRB03KT P6SM SCT060 BKN200
     FM210600 00000KT 2SM BR SCT100=



000
FTUS41 KRNK 201140
TAFDAN
TAF
KDAN 201140Z 2012/2112 00000KT 5SM BR SCT004 OVC018
      TEMPO 2012/2013 1SM BR OVC004
     FM201300 VRB03KT P6SM SCT018 BKN050
     FM202000 23006KT P6SM VCTS BKN060CB
     FM210100 VRB03KT P6SM BKN080
     FM210600 00000KT 2SM BR SCT100=



000
FTUS41 KRNK 201140
TAFLWB
TAF
KLWB 201140Z 2012/2112 00000KT 4SM BR OVC005
     FM201300 VRB03KT 6SM -SHRA BKN013 OVC050
     FM201500 VRB03KT 4SM SHRA OVC018
     FM201700 26005KT P6SM VCTS SCT020 BKN050CB
     FM202200 VRB03KT P6SM SCT060 BKN200
     FM210300 00000KT 4SM BR SCT007
     FM210900 00000KT 1/4SM FG VV002=



000
FTUS41 KRNK 201140
TAFLYH
TAF
KLYH 201140Z 2012/2112 04003KT 5SM BR BKN006 OVC015
     FM201330 VRB03KT P6SM SCT008 BKN025
     FM201600 VRB03KT 6SM -SHRA SCT018 OVC050
     FM201900 21005KT P6SM VCTS BKN050CB
     FM202300 VRB03KT P6SM SCT060 BKN200
     FM210600 00000KT 2SM BR SCT100=



000
FTUS41 KRNK 201140
TAFROA
TAF
KROA 201140Z 2012/2112 VRB03KT P6SM SCT004 OVC015
      TEMPO 2012/2013 4SM BR OVC002
     FM201500 VRB03KT 6SM -SHRA SCT015 OVC040
     FM201700 16006KT P6SM VCTS BKN050CB
     FM202000 VRB03KT P6SM SCT060 BKN200
     FM210800 VRB03KT 6SM BR SCT005=



000
FTUS41 KRNK 201140
TAFBLF
TAF
KBLF 201140Z 2012/2112 21004KT P6SM SCT025 BKN100
     FM201300 24006KT 3SM TSRA BKN025CB OVC100
     FM201500 27003KT 5SM -RA BR OVC010
     FM201700 28008KT P6SM SCT040 BKN070
     FM202200 26004KT P6SM SCT050 BKN200
     FM210600 25003KT 4SM BR SCT004=



000
FTUS41 KRNK 201140
TAFDAN
TAF
KDAN 201140Z 2012/2112 00000KT 5SM BR SCT004 OVC018
      TEMPO 2012/2013 1SM BR OVC004
     FM201300 VRB03KT P6SM SCT018 BKN050
     FM202000 23006KT P6SM VCTS BKN060CB
     FM210100 VRB03KT P6SM BKN080
     FM210600 00000KT 2SM BR SCT100=



000
FTUS41 KRNK 201140
TAFBLF
TAF
KBLF 201140Z 2012/2112 21004KT P6SM SCT025 BKN100
     FM201300 24006KT 3SM TSRA BKN025CB OVC100
     FM201500 27003KT 5SM -RA BR OVC010
     FM201700 28008KT P6SM SCT040 BKN070
     FM202200 26004KT P6SM SCT050 BKN200
     FM210600 25003KT 4SM BR SCT004=



000
FTUS41 KRNK 201140
TAFLWB
TAF
KLWB 201140Z 2012/2112 00000KT 4SM BR OVC005
     FM201300 VRB03KT 6SM -SHRA BKN013 OVC050
     FM201500 VRB03KT 4SM SHRA OVC018
     FM201700 26005KT P6SM VCTS SCT020 BKN050CB
     FM202200 VRB03KT P6SM SCT060 BKN200
     FM210300 00000KT 4SM BR SCT007
     FM210900 00000KT 1/4SM FG VV002=



000
FTUS41 KRNK 201140
TAFLYH
TAF
KLYH 201140Z 2012/2112 04003KT 5SM BR BKN006 OVC015
     FM201330 VRB03KT P6SM SCT008 BKN025
     FM201600 VRB03KT 6SM -SHRA SCT018 OVC050
     FM201900 21005KT P6SM VCTS BKN050CB
     FM202300 VRB03KT P6SM SCT060 BKN200
     FM210600 00000KT 2SM BR SCT100=



000
FTUS41 KRNK 201140
TAFROA
TAF
KROA 201140Z 2012/2112 VRB03KT P6SM SCT004 OVC015
      TEMPO 2012/2013 4SM BR OVC002
     FM201500 VRB03KT 6SM -SHRA SCT015 OVC040
     FM201700 16006KT P6SM VCTS BKN050CB
     FM202000 VRB03KT P6SM SCT060 BKN200
     FM210800 VRB03KT 6SM BR SCT005=



000
FTUS41 KRNK 200927 AAA
TAFLWB
TAF AMD
KLWB 200927Z 2009/2106 00000KT 5SM BR SCT003 OVC011
      TEMPO 2009/2012 1/2SM FG OVC003
     FM201300 VRB03KT P6SM BKN013 OVC250
     FM201700 26005KT P6SM VCTS BKN050CB
     FM202200 VRB03KT P6SM SCT060 BKN200
     FM210300 00000KT 4SM BR SCT007=



000
FTUS41 KRNK 200927 AAA
TAFLWB
TAF AMD
KLWB 200927Z 2009/2106 00000KT 5SM BR SCT003 OVC011
      TEMPO 2009/2012 1/2SM FG OVC003
     FM201300 VRB03KT P6SM BKN013 OVC250
     FM201700 26005KT P6SM VCTS BKN050CB
     FM202200 VRB03KT P6SM SCT060 BKN200
     FM210300 00000KT 4SM BR SCT007=



000
FTUS41 KRNK 200924 AAA
TAFBLF
TAF AMD
KBLF 200924Z 2009/2106 25004KT P6SM SCT004 BKN250
      TEMPO 2009/2012 1SM BR BKN004
     FM201300 27006KT 6SM -SHRA BKN040 OVC100
     FM201700 28008KT P6SM VCTS SCT040CB BKN070
     FM202200 26004KT P6SM SCT050 BKN200=



000
FTUS41 KRNK 200924 AAA
TAFBLF
TAF AMD
KBLF 200924Z 2009/2106 25004KT P6SM SCT004 BKN250
      TEMPO 2009/2012 1SM BR BKN004
     FM201300 27006KT 6SM -SHRA BKN040 OVC100
     FM201700 28008KT P6SM VCTS SCT040CB BKN070
     FM202200 26004KT P6SM SCT050 BKN200=



000
FTUS41 KRNK 200921 AAA
TAFDAN
TAF AMD
KDAN 200921Z 2009/2106 00000KT 4SM BR SCT004
      TEMPO 2009/2013 1SM BR OVC004
     FM201300 VRB03KT P6SM BKN050
     FM202000 23006KT P6SM VCTS BKN060CB
     FM210100 VRB03KT P6SM BKN080=



000
FTUS41 KRNK 200921 AAA
TAFDAN
TAF AMD
KDAN 200921Z 2009/2106 00000KT 4SM BR SCT004
      TEMPO 2009/2013 1SM BR OVC004
     FM201300 VRB03KT P6SM BKN050
     FM202000 23006KT P6SM VCTS BKN060CB
     FM210100 VRB03KT P6SM BKN080=



000
FTUS41 KRNK 200540
TAFLYH
TAF
KLYH 200540Z 2006/2106 04003KT 5SM BR SCT006 OVC015
      TEMPO 2009/2012 3SM BR BKN006
     FM201300 VRB03KT P6SM BKN025
     FM201900 21005KT P6SM VCTS BKN050CB
     FM210000 VRB03KT P6SM SCT060 BKN200=



000
FTUS41 KRNK 200540
TAFROA
TAF
KROA 200540Z 2006/2106 05003KT P6SM SCT017 BKN080
      TEMPO 2010/2013 5SM BR SCT009 OVC017
     FM201300 VRB03KT P6SM BKN080
     FM201900 16006KT P6SM VCTS BKN050CB
     FM202200 VRB03KT P6SM SCT060 BKN200=



000
FTUS41 KRNK 200540
TAFDAN
TAF
KDAN 200540Z 2006/2106 00000KT 4SM BR SCT015
      TEMPO 2010/2013 OVC015
     FM201300 VRB03KT P6SM BKN050
     FM202000 23006KT P6SM VCTS BKN060CB
     FM210100 VRB03KT P6SM BKN080=



000
FTUS41 KRNK 200540
TAFLYH
TAF
KLYH 200540Z 2006/2106 04003KT 5SM BR SCT006 OVC015
      TEMPO 2009/2012 3SM BR BKN006
     FM201300 VRB03KT P6SM BKN025
     FM201900 21005KT P6SM VCTS BKN050CB
     FM210000 VRB03KT P6SM SCT060 BKN200=



000
FTUS41 KRNK 200540
TAFROA
TAF
KROA 200540Z 2006/2106 05003KT P6SM SCT017 BKN080
      TEMPO 2010/2013 5SM BR SCT009 OVC017
     FM201300 VRB03KT P6SM BKN080
     FM201900 16006KT P6SM VCTS BKN050CB
     FM202200 VRB03KT P6SM SCT060 BKN200=



000
FTUS41 KRNK 200540
TAFDAN
TAF
KDAN 200540Z 2006/2106 00000KT 4SM BR SCT015
      TEMPO 2010/2013 OVC015
     FM201300 VRB03KT P6SM BKN050
     FM202000 23006KT P6SM VCTS BKN060CB
     FM210100 VRB03KT P6SM BKN080=



000
FTUS41 KRNK 200540
TAFLWB
TAF
KLWB 200540Z 2006/2106 00000KT 3SM BR SCT003 OVC025
     FM200800 00000KT 1/2SM FG OVC002
     FM201200 VRB03KT 5SM BR SCT003 BKN008
     FM201700 26005KT P6SM VCTS BKN050CB
     FM202200 VRB03KT P6SM SCT060 BKN200
     FM210300 00000KT 4SM BR SCT007=



000
FTUS41 KRNK 200540
TAFBLF
TAF
KBLF 200540Z 2006/2106 25003KT 1/2SM FG VV003
     FM201300 27006KT 6SM -SHRA BKN040 OVC100
     FM201700 28008KT P6SM VCTS SCT040CB BKN070
     FM202200 26004KT P6SM SCT050 BKN200=



000
FTUS41 KRNK 200540
TAFLWB
TAF
KLWB 200540Z 2006/2106 00000KT 3SM BR SCT003 OVC025
     FM200800 00000KT 1/2SM FG OVC002
     FM201200 VRB03KT 5SM BR SCT003 BKN008
     FM201700 26005KT P6SM VCTS BKN050CB
     FM202200 VRB03KT P6SM SCT060 BKN200
     FM210300 00000KT 4SM BR SCT007=



000
FTUS41 KRNK 200540
TAFBLF
TAF
KBLF 200540Z 2006/2106 25003KT 1/2SM FG VV003
     FM201300 27006KT 6SM -SHRA BKN040 OVC100
     FM201700 28008KT P6SM VCTS SCT040CB BKN070
     FM202200 26004KT P6SM SCT050 BKN200=



000
FTUS41 KRNK 200410 AAA
TAFDAN
TAF AMD
KDAN 200410Z 2004/2024 00000KT 4SM BR SCT100 BKN250
      TEMPO 2010/2013 OVC025
     FM201300 VRB03KT P6SM BKN080
     FM202000 23006KT P6SM VCSH BKN070=



000
FTUS41 KRNK 200410 AAA
TAFDAN
TAF AMD
KDAN 200410Z 2004/2024 00000KT 4SM BR SCT100 BKN250
      TEMPO 2010/2013 OVC025
     FM201300 VRB03KT P6SM BKN080
     FM202000 23006KT P6SM VCSH BKN070=



000
FTUS41 KRNK 200100 AAB
TAFLYH
TAF AMD
KLYH 200100Z 2001/2024 VRB03KT 6SM -SHRA BKN035
      TEMPO 2001/2003 3SM -SHRA OVC025
     FM200400 04003KT 5SM BR SCT006 OVC015
      TEMPO 2009/2012 3SM BR BKN006
     FM201300 VRB03KT P6SM BKN025
     FM201900 23006KT P6SM VCSH BKN060=



000
FTUS41 KRNK 200100 AAB
TAFLYH
TAF AMD
KLYH 200100Z 2001/2024 VRB03KT 6SM -SHRA BKN035
      TEMPO 2001/2003 3SM -SHRA OVC025
     FM200400 04003KT 5SM BR SCT006 OVC015
      TEMPO 2009/2012 3SM BR BKN006
     FM201300 VRB03KT P6SM BKN025
     FM201900 23006KT P6SM VCSH BKN060=



000
FTUS41 KRNK 200049 AAA
TAFLYH
TAF AMD
KLYH 200049Z 2001/2024 VRB03KT 6SM -SHRA BKN035
      TEMPO 2002/2004 3SM -SHRA OVC025
     FM200400 04003KT 5SM BR SCT006 OVC015
      TEMPO 2009/2012 3SM BR BKN006
     FM201300 VRB03KT P6SM BKN025
     FM201900 23006KT P6SM VCSH BKN060=



000
FTUS41 KRNK 200049 AAA
TAFLYH
TAF AMD
KLYH 200049Z 2001/2024 VRB03KT 6SM -SHRA BKN035
      TEMPO 2002/2004 3SM -SHRA OVC025
     FM200400 04003KT 5SM BR SCT006 OVC015
      TEMPO 2009/2012 3SM BR BKN006
     FM201300 VRB03KT P6SM BKN025
     FM201900 23006KT P6SM VCSH BKN060=



000
FTUS41 KRNK 192320
TAFBLF
TAF
KBLF 192320Z 2000/2024 31006KT P6SM VCSH SCT035 BKN080
     FM200200 VRB03KT P6SM OVC035
     FM200700 25003KT 6SM BR SCT006 OVC025
     FM201300 27006KT P6SM BKN040
     FM201900 28008KT P6SM VCSH SCT030 BKN050=



000
FTUS41 KRNK 192320
TAFLWB
TAF
KLWB 192320Z 2000/2024 VRB03KT P6SM VCSH OVC080
     FM200200 VRB03KT P6SM OVC035
     FM200600 00000KT 3SM BR SCT003 OVC025
     FM200800 00000KT 1/2SM FG OVC002
     FM201200 VRB03KT 5SM BR SCT003 BKN008
     FM201800 26005KT P6SM BKN060=



000
FTUS41 KRNK 192320
TAFROA
TAF
KROA 192320Z 2000/2024 27003KT P6SM BKN100
     FM200400 VRB03KT P6SM SCT025 OVC080
      TEMPO 2010/2013 OVC025
     FM201300 VRB03KT P6SM BKN080
     FM201900 23006KT P6SM VCSH BKN060=



000
FTUS41 KRNK 192320
TAFROA
TAF
KROA 192320Z 2000/2024 27003KT P6SM BKN100
     FM200400 VRB03KT P6SM SCT025 OVC080
      TEMPO 2010/2013 OVC025
     FM201300 VRB03KT P6SM BKN080
     FM201900 23006KT P6SM VCSH BKN060=



000
FTUS41 KRNK 192320
TAFDAN
TAF
KDAN 192320Z 2000/2024 06003KT P6SM SCT100
     FM200600 04003KT P6SM BKN080
      TEMPO 2010/2013 OVC025
     FM201300 VRB03KT P6SM BKN080
     FM202000 23006KT P6SM VCSH BKN070=



000
FTUS41 KRNK 192320
TAFLYH
TAF
KLYH 192320Z 2000/2024 06003KT P6SM VCSH BKN070
     FM200130 VRB03KT 6SM -SHRA OVC025
     FM200300 04003KT 5SM BR SCT006 OVC015
      TEMPO 2009/2012 3SM BR BKN006
     FM201300 VRB03KT P6SM BKN025
     FM201900 23006KT P6SM VCSH BKN060=



000
FTUS41 KRNK 192320
TAFLWB
TAF
KLWB 192320Z 2000/2024 VRB03KT P6SM VCSH OVC080
     FM200200 VRB03KT P6SM OVC035
     FM200600 00000KT 3SM BR SCT003 OVC025
     FM200800 00000KT 1/2SM FG OVC002
     FM201200 VRB03KT 5SM BR SCT003 BKN008
     FM201800 26005KT P6SM BKN060=



000
FTUS41 KRNK 192320
TAFDAN
TAF
KDAN 192320Z 2000/2024 06003KT P6SM SCT100
     FM200600 04003KT P6SM BKN080
      TEMPO 2010/2013 OVC025
     FM201300 VRB03KT P6SM BKN080
     FM202000 23006KT P6SM VCSH BKN070=



000
FTUS41 KRNK 192320
TAFBLF
TAF
KBLF 192320Z 2000/2024 31006KT P6SM VCSH SCT035 BKN080
     FM200200 VRB03KT P6SM OVC035
     FM200700 25003KT 6SM BR SCT006 OVC025
     FM201300 27006KT P6SM BKN040
     FM201900 28008KT P6SM VCSH SCT030 BKN050=



000
FTUS41 KRNK 192320
TAFLYH
TAF
KLYH 192320Z 2000/2024 06003KT P6SM VCSH BKN070
     FM200130 VRB03KT 6SM -SHRA OVC025
     FM200300 04003KT 5SM BR SCT006 OVC015
      TEMPO 2009/2012 3SM BR BKN006
     FM201300 VRB03KT P6SM BKN025
     FM201900 23006KT P6SM VCSH BKN060=



000
FTUS41 KRNK 192017 AAB
TAFBLF
TAF AMD
KBLF 192017Z 1920/2018 35006KT P6SM VCSH BKN022 BKN035
      TEMPO 1921/1924 SCT035 BKN080
     FM200400 25004KT 5SM BR BKN020
     FM200800 24004KT 3SM BR OVC010
      TEMPO 2009/2012 1SM BR OVC004
     FM201200 26005KT P6SM VCSH BKN015=



000
FTUS41 KRNK 192016 AAC
TAFROA
TAF AMD
KROA 192016Z 1920/2018 30004KT P6SM SCT015 BKN045
      TEMPO 1921/1923 4SM -TSRA BKN035CB
     FM200400 VRB03KT 5SM BR BKN025
      TEMPO 2009/2012 2SM BR BKN006
     FM201200 23004KT P6SM VCSH BKN020=



000
FTUS41 KRNK 192015 AAA
TAFDAN
TAF AMD
KDAN 192015Z 1920/2018 03005KT P6SM VCSH SCT035 BKN050
     FM200600 00000KT 5SM BR BKN025
      TEMPO 2009/2012 2SM BR BKN006
     FM201300 VRB04KT P6SM VCSH BKN020=



000
FTUS41 KRNK 192015 AAA
TAFDAN
TAF AMD
KDAN 192015Z 1920/2018 03005KT P6SM VCSH SCT035 BKN050
     FM200600 00000KT 5SM BR BKN025
      TEMPO 2009/2012 2SM BR BKN006
     FM201300 VRB04KT P6SM VCSH BKN020=



000
FTUS41 KRNK 192014 AAA
TAFLWB
TAF AMD
KLWB 192014Z 1920/2018 VRB03KT P6SM VCSH SCT025 BKN035
      TEMPO 1921/1923 4SM -TSRA BKN025CB
     FM200700 00000KT 1/2SM FG OVC002
     FM201200 VRB03KT 3SM BR VCSH BKN008=



000
FTUS41 KRNK 192014 AAA
TAFLWB
TAF AMD
KLWB 192014Z 1920/2018 VRB03KT P6SM VCSH SCT025 BKN035
      TEMPO 1921/1923 4SM -TSRA BKN025CB
     FM200700 00000KT 1/2SM FG OVC002
     FM201200 VRB03KT 3SM BR VCSH BKN008=



000
FTUS41 KRNK 191959 AAB
TAFROA
TAF AMD
KROA 191959Z 1920/2018 30004KT P6SM SCT015 BKN040
      TEMPO 1920/1922 4SM -TSRA BKN015CB
     FM200400 VRB03KT 5SM BR BKN025
      TEMPO 2009/2012 2SM BR BKN006
     FM201200 23004KT P6SM VCSH BKN020=



000
FTUS41 KRNK 191959 AAB
TAFROA
TAF AMD
KROA 191959Z 1920/2018 30004KT P6SM SCT015 BKN040
      TEMPO 1920/1922 4SM -TSRA BKN015CB
     FM200400 VRB03KT 5SM BR BKN025
      TEMPO 2009/2012 2SM BR BKN006
     FM201200 23004KT P6SM VCSH BKN020=



000
FTUS41 KRNK 191925 AAA
TAFBLF
TAF AMD
KBLF 191925Z 1919/2018 31008KT P6SM VCSH FEW022 BKN060
      TEMPO 1920/1924 4SM -TSRA BKN012CB
     FM200400 25004KT 5SM BR BKN020
     FM200800 24004KT 3SM BR OVC010
      TEMPO 2009/2012 1SM BR OVC004
     FM201200 26005KT P6SM VCSH BKN015=



000
FTUS41 KRNK 191925 AAA
TAFBLF
TAF AMD
KBLF 191925Z 1919/2018 31008KT P6SM VCSH FEW022 BKN060
      TEMPO 1920/1924 4SM -TSRA BKN012CB
     FM200400 25004KT 5SM BR BKN020
     FM200800 24004KT 3SM BR OVC010
      TEMPO 2009/2012 1SM BR OVC004
     FM201200 26005KT P6SM VCSH BKN015=



000
FTUS41 KRNK 191817 AAA
TAFROA
TAF AMD
KROA 191817Z 1918/2018 00000KT P6SM VCSH SCT015 OVC025
      TEMPO 1918/1921 4SM -TSRA BKN015CB
     FM200400 VRB03KT 5SM BR BKN025
      TEMPO 2009/2012 2SM BR BKN006
     FM201200 23004KT P6SM VCSH BKN020=



000
FTUS41 KRNK 191817 AAA
TAFROA
TAF AMD
KROA 191817Z 1918/2018 00000KT P6SM VCSH SCT015 OVC025
      TEMPO 1918/1921 4SM -TSRA BKN015CB
     FM200400 VRB03KT 5SM BR BKN025
      TEMPO 2009/2012 2SM BR BKN006
     FM201200 23004KT P6SM VCSH BKN020=



000
FTUS41 KRNK 191728
TAFDAN
TAF
KDAN 191728Z 1918/2018 VRB04KT P6SM VCSH BKN025 BKN035
      TEMPO 1920/1924 4SM -TSRA BKN015CB
     FM200600 00000KT 5SM BR BKN025
      TEMPO 2009/2012 2SM BR BKN006
     FM201300 VRB04KT P6SM VCSH BKN020=



000
FTUS41 KRNK 191728
TAFROA
TAF
KROA 191728Z 1918/2018 03004KT P6SM VCSH SCT020 BKN035
      TEMPO 1920/1924 4SM -TSRA BKN015CB
     FM200400 VRB03KT 5SM BR BKN025
      TEMPO 2009/2012 2SM BR BKN006
     FM201200 23004KT P6SM VCSH BKN020=



000
FTUS41 KRNK 191728
TAFDAN
TAF
KDAN 191728Z 1918/2018 VRB04KT P6SM VCSH BKN025 BKN035
      TEMPO 1920/1924 4SM -TSRA BKN015CB
     FM200600 00000KT 5SM BR BKN025
      TEMPO 2009/2012 2SM BR BKN006
     FM201300 VRB04KT P6SM VCSH BKN020=



000
FTUS41 KRNK 191728
TAFLYH
TAF
KLYH 191728Z 1918/2018 VRB03KT P6SM VCSH SCT025 BKN035
     FM200600 00000KT 5SM BR BKN025
      TEMPO 2009/2012 2SM BR BKN006
     FM201300 VRB03KT P6SM VCSH BKN020=



000
FTUS41 KRNK 191728
TAFLWB
TAF
KLWB 191728Z 1918/2018 VRB03KT P6SM VCSH SCT025 BKN035
      TEMPO 1920/1924 4SM -TSRA BKN012CB
     FM200700 00000KT 1/2SM FG OVC002
     FM201200 VRB03KT 3SM BR VCSH BKN008=



000
FTUS41 KRNK 191728
TAFROA
TAF
KROA 191728Z 1918/2018 03004KT P6SM VCSH SCT020 BKN035
      TEMPO 1920/1924 4SM -TSRA BKN015CB
     FM200400 VRB03KT 5SM BR BKN025
      TEMPO 2009/2012 2SM BR BKN006
     FM201200 23004KT P6SM VCSH BKN020=



000
FTUS41 KRNK 191728
TAFBLF
TAF
KBLF 191728Z 1918/2018 30005KT P6SM VCSH SCT012 BKN025
      TEMPO 1920/1924 4SM -TSRA BKN012CB
     FM200400 25004KT 5SM BR BKN020
     FM200800 24004KT 3SM BR OVC010
      TEMPO 2009/2012 1SM BR OVC004
     FM201200 26005KT P6SM VCSH BKN015=



000
FTUS41 KRNK 191728
TAFLWB
TAF
KLWB 191728Z 1918/2018 VRB03KT P6SM VCSH SCT025 BKN035
      TEMPO 1920/1924 4SM -TSRA BKN012CB
     FM200700 00000KT 1/2SM FG OVC002
     FM201200 VRB03KT 3SM BR VCSH BKN008=



000
FTUS41 KRNK 191728
TAFLYH
TAF
KLYH 191728Z 1918/2018 VRB03KT P6SM VCSH SCT025 BKN035
     FM200600 00000KT 5SM BR BKN025
      TEMPO 2009/2012 2SM BR BKN006
     FM201300 VRB03KT P6SM VCSH BKN020=



000
FTUS41 KRNK 191728
TAFBLF
TAF
KBLF 191728Z 1918/2018 30005KT P6SM VCSH SCT012 BKN025
      TEMPO 1920/1924 4SM -TSRA BKN012CB
     FM200400 25004KT 5SM BR BKN020
     FM200800 24004KT 3SM BR OVC010
      TEMPO 2009/2012 1SM BR OVC004
     FM201200 26005KT P6SM VCSH BKN015=



000
FTUS41 KRNK 191526 AAB
TAFLWB
TAF AMD
KLWB 191526Z 1915/2012 VRB03KT P6SM SCT015 BKN030
     FM191800 00000KT 6SM -SHRA OVC035
     FM200100 00000KT 5SM HZ BKN250
     FM200500 00000KT 3/4SM BR OVC001=



000
FTUS41 KRNK 191358 AAA
TAFBLF
TAF AMD
KBLF 191358Z 1914/2012 26006KT P6SM VCSH OVC007
     FM191600 29005KT P6SM VCSH OVC015
     FM191900 VRB03KT 6SM -SHRA OVC035
     FM200400 27003KT 5SM BR SCT004 BKN250=



000
FTUS41 KRNK 191358 AAA
TAFBLF
TAF AMD
KBLF 191358Z 1914/2012 26006KT P6SM VCSH OVC007
     FM191600 29005KT P6SM VCSH OVC015
     FM191900 VRB03KT 6SM -SHRA OVC035
     FM200400 27003KT 5SM BR SCT004 BKN250=



000
FTUS41 KRNK 191355 AAA
TAFLWB
TAF AMD
KLWB 191355Z 1914/2012 00000KT P6SM OVC008
     FM191600 30005KT P6SM BKN015
     FM191800 00000KT 6SM -SHRA OVC035
     FM200100 00000KT 5SM HZ BKN250
     FM200500 00000KT 3/4SM BR OVC001=



000
FTUS41 KRNK 191355 AAA
TAFLWB
TAF AMD
KLWB 191355Z 1914/2012 00000KT P6SM OVC008
     FM191600 30005KT P6SM BKN015
     FM191800 00000KT 6SM -SHRA OVC035
     FM200100 00000KT 5SM HZ BKN250
     FM200500 00000KT 3/4SM BR OVC001=



000
FTUS41 KRNK 191139
TAFLWB
TAF
KLWB 191139Z 1912/2012 00000KT 4SM BR OVC004
      TEMPO 1912/1913 2SM BR OVC002
     FM191400 30007KT P6SM BKN015
     FM191800 00000KT 6SM -SHRA OVC035
     FM200100 00000KT 5SM HZ BKN250
     FM200500 00000KT 3/4SM BR OVC001=



000
FTUS41 KRNK 191139
TAFDAN
TAF
KDAN 191139Z 1912/2012 34003KT 6SM BR SCT003 BKN015
      TEMPO 1912/1913 4SM BR BKN003
     FM191500 35005KT P6SM BKN020
     FM191900 02004KT P6SM SCT035
     FM192300 04003KT P6SM BKN020
     FM200200 VRB03KT 3SM BR SCT015 BKN250=



000
FTUS41 KRNK 191139
TAFBLF
TAF
KBLF 191139Z 1912/2012 27005KT 4SM BR OVC005
     FM191400 29003KT 5SM HZ OVC009
     FM191600 29004KT P6SM BKN015 OVC020
     FM191900 VRB03KT 6SM -SHRA OVC035
     FM200400 27003KT 5SM BR SCT004 BKN250=



000
FTUS41 KRNK 191139
TAFROA
TAF
KROA 191139Z 1912/2012 34003KT P6SM SCT022 OVC060
      TEMPO 1912/1916 6SM -SHRA BKN022
     FM191600 07005KT P6SM VCSH SCT025 BKN035
     FM200000 VRB03KT 6SM HZ SCT035 OVC250
     FM200600 00000KT 4SM BR SCT015 BKN250=



000
FTUS41 KRNK 191139
TAFLYH
TAF
KLYH 191139Z 1912/2012 00000KT 5SM BR BKN011
     FM191330 04004KT P6SM BKN020
     FM191900 VRB03KT P6SM VCSH BKN035
     FM200100 00000KT 5SM BR BKN070
     FM200500 02001KT 2SM BR SCT015 BKN250=



000
FTUS41 KRNK 191139
TAFBLF
TAF
KBLF 191139Z 1912/2012 27005KT 4SM BR OVC005
     FM191400 29003KT 5SM HZ OVC009
     FM191600 29004KT P6SM BKN015 OVC020
     FM191900 VRB03KT 6SM -SHRA OVC035
     FM200400 27003KT 5SM BR SCT004 BKN250=



000
FTUS41 KRNK 191139
TAFLWB
TAF
KLWB 191139Z 1912/2012 00000KT 4SM BR OVC004
      TEMPO 1912/1913 2SM BR OVC002
     FM191400 30007KT P6SM BKN015
     FM191800 00000KT 6SM -SHRA OVC035
     FM200100 00000KT 5SM HZ BKN250
     FM200500 00000KT 3/4SM BR OVC001=



000
FTUS41 KRNK 191139
TAFDAN
TAF
KDAN 191139Z 1912/2012 34003KT 6SM BR SCT003 BKN015
      TEMPO 1912/1913 4SM BR BKN003
     FM191500 35005KT P6SM BKN020
     FM191900 02004KT P6SM SCT035
     FM192300 04003KT P6SM BKN020
     FM200200 VRB03KT 3SM BR SCT015 BKN250=



000
FTUS41 KRNK 191139
TAFLYH
TAF
KLYH 191139Z 1912/2012 00000KT 5SM BR BKN011
     FM191330 04004KT P6SM BKN020
     FM191900 VRB03KT P6SM VCSH BKN035
     FM200100 00000KT 5SM BR BKN070
     FM200500 02001KT 2SM BR SCT015 BKN250=



000
FTUS41 KRNK 191139
TAFROA
TAF
KROA 191139Z 1912/2012 34003KT P6SM SCT022 OVC060
      TEMPO 1912/1916 6SM -SHRA BKN022
     FM191600 07005KT P6SM VCSH SCT025 BKN035
     FM200000 VRB03KT 6SM HZ SCT035 OVC250
     FM200600 00000KT 4SM BR SCT015 BKN250=



000
FTUS41 KRNK 190933 AAA
TAFROA
TAF AMD
KROA 190933Z 1910/2006 33003KT P6SM SCT027 BKN035 BKN050
      TEMPO 1910/1912 BKN022
     FM191200 34004KT 6SM -SHRA OVC022
     FM191600 07005KT P6SM -SHRA SCT025 BKN035
     FM200000 VRB03KT 6SM HZ SCT035 BKN250=



000
FTUS41 KRNK 190930 AAB
TAFDAN
TAF AMD
KDAN 190930Z 1910/2006 34003KT 6SM BR OVC003
      TEMPO 1910/1912 3SM BR
     FM191500 35005KT P6SM BKN020
     FM191900 02004KT P6SM SCT035
     FM192300 04003KT P6SM BKN020
     FM200200 VRB03KT 5SM BR BKN070=



000
FTUS41 KRNK 190930 AAB
TAFDAN
TAF AMD
KDAN 190930Z 1910/2006 34003KT 6SM BR OVC003
      TEMPO 1910/1912 3SM BR
     FM191500 35005KT P6SM BKN020
     FM191900 02004KT P6SM SCT035
     FM192300 04003KT P6SM BKN020
     FM200200 VRB03KT 5SM BR BKN070=



000
FTUS41 KRNK 190929 AAA
TAFLWB
TAF AMD
KLWB 190929Z 1909/2006 00000KT 2SM BR OVC002
      TEMPO 1909/1912 1/2SM FG
     FM191400 30007KT P6SM BKN015
     FM191800 00000KT P6SM BKN035
     FM200100 00000KT 5SM HZ BKN250
     FM200500 24001KT 3/4SM BR OVC001=



000
FTUS41 KRNK 190929 AAA
TAFLWB
TAF AMD
KLWB 190929Z 1909/2006 00000KT 2SM BR OVC002
      TEMPO 1909/1912 1/2SM FG
     FM191400 30007KT P6SM BKN015
     FM191800 00000KT P6SM BKN035
     FM200100 00000KT 5SM HZ BKN250
     FM200500 24001KT 3/4SM BR OVC001=



000
FTUS41 KRNK 190655 AAA
TAFBLF
TAF AMD
KBLF 190655Z 1907/2006 27005KT 4SM BR OVC002
      TEMPO 1908/1911 1/2SM -DZ FG OVC001
     FM191400 29003KT 5SM HZ OVC009
     FM191600 29004KT P6SM BKN015 OVC020
     FM191900 VRB03KT P6SM BKN035
     FM200400 27003KT 5SM BR FEW250=



000
FTUS41 KRNK 190655 AAA
TAFBLF
TAF AMD
KBLF 190655Z 1907/2006 27005KT 4SM BR OVC002
      TEMPO 1908/1911 1/2SM -DZ FG OVC001
     FM191400 29003KT 5SM HZ OVC009
     FM191600 29004KT P6SM BKN015 OVC020
     FM191900 VRB03KT P6SM BKN035
     FM200400 27003KT 5SM BR FEW250=



000
FTUS41 KRNK 190653 AAA
TAFDAN
TAF AMD
KDAN 190653Z 1907/2006 00000KT 1/4SM FG VV002
     FM191300 00000KT 5SM BR OVC004
     FM191500 35005KT P6SM BKN020
     FM191900 02004KT P6SM SCT035
     FM192300 04003KT P6SM BKN020
     FM200200 VRB03KT 5SM BR BKN070=



000
FTUS41 KRNK 190538
TAFROA
TAF
KROA 190538Z 1906/2006 02006KT 5SM -RA BR FEW010 BKN021 OVC027
     FM191300 30003KT 5SM -SHRA BR OVC009
     FM191500 34004KT 6SM -SHRA OVC018
     FM191800 07005KT P6SM -SHRA BKN035
     FM200000 VRB03KT 6SM HZ SCT035 BKN250=



000
FTUS41 KRNK 190538
TAFLYH
TAF
KLYH 190538Z 1906/2006 00000KT 4SM -RA BR BKN003 BKN024 OVC035
     FM190900 00000KT 5SM BR OVC008
     FM191400 35005KT P6SM BKN020
     FM191900 VRB03KT P6SM BKN035
     FM200100 00000KT 5SM BR BKN070
     FM200500 02001KT 2SM BR OVC070=



000
FTUS41 KRNK 190538
TAFLWB
TAF
KLWB 190538Z 1906/2006 00000KT P6SM VCSH BKN026 OVC030
     FM191400 30007KT P6SM BKN015
     FM191800 00000KT P6SM BKN035
     FM200100 00000KT 5SM HZ BKN250
     FM200500 24001KT 3/4SM BR OVC001=



000
FTUS41 KRNK 190538
TAFDAN
TAF
KDAN 190538Z 1906/2006 00000KT 1/2SM FG VCSH VV004
      TEMPO 1906/1908 BKN004
     FM190900 00000KT 5SM -DZ BR OVC004
     FM191400 35005KT P6SM BKN020
     FM191900 02004KT P6SM SCT035
     FM192300 04003KT P6SM BKN020
     FM200200 VRB03KT 5SM BR BKN070=



000
FTUS41 KRNK 190538
TAFBLF
TAF
KBLF 190538Z 1906/2006 28004KT P6SM OVC003
      TEMPO 1908/1911 1/2SM -DZ FG OVC001
     FM191400 29003KT 5SM HZ OVC009
     FM191600 29004KT P6SM BKN015 OVC020
     FM191900 VRB03KT P6SM BKN035
     FM200400 27003KT 5SM BR FEW250=



000
FTUS41 KRNK 190538
TAFLWB
TAF
KLWB 190538Z 1906/2006 00000KT P6SM VCSH BKN026 OVC030
     FM191400 30007KT P6SM BKN015
     FM191800 00000KT P6SM BKN035
     FM200100 00000KT 5SM HZ BKN250
     FM200500 24001KT 3/4SM BR OVC001=



000
FTUS41 KRNK 190538
TAFDAN
TAF
KDAN 190538Z 1906/2006 00000KT 1/2SM FG VCSH VV004
      TEMPO 1906/1908 BKN004
     FM190900 00000KT 5SM -DZ BR OVC004
     FM191400 35005KT P6SM BKN020
     FM191900 02004KT P6SM SCT035
     FM192300 04003KT P6SM BKN020
     FM200200 VRB03KT 5SM BR BKN070=



000
FTUS41 KRNK 190538
TAFROA
TAF
KROA 190538Z 1906/2006 02006KT 5SM -RA BR FEW010 BKN021 OVC027
     FM191300 30003KT 5SM -SHRA BR OVC009
     FM191500 34004KT 6SM -SHRA OVC018
     FM191800 07005KT P6SM -SHRA BKN035
     FM200000 VRB03KT 6SM HZ SCT035 BKN250=



000
FTUS41 KRNK 190538
TAFLYH
TAF
KLYH 190538Z 1906/2006 00000KT 4SM -RA BR BKN003 BKN024 OVC035
     FM190900 00000KT 5SM BR OVC008
     FM191400 35005KT P6SM BKN020
     FM191900 VRB03KT P6SM BKN035
     FM200100 00000KT 5SM BR BKN070
     FM200500 02001KT 2SM BR OVC070=



000
FTUS41 KRNK 190538
TAFBLF
TAF
KBLF 190538Z 1906/2006 28004KT P6SM OVC003
      TEMPO 1908/1911 1/2SM -DZ FG OVC001
     FM191400 29003KT 5SM HZ OVC009
     FM191600 29004KT P6SM BKN015 OVC020
     FM191900 VRB03KT P6SM BKN035
     FM200400 27003KT 5SM BR FEW250=



000
FTUS41 KRNK 190533
TAFLYH
TAF
KLYH 190533Z 1906/2006 00000KT 4SM -RA BR BKN003 BKN024 OVC035
     FM190900 00000KT 5SM BR OVC008
      TEMPO 1909/1913 3SM -DZ BR OVC004
     FM191400 35005KT P6SM BKN020=



000
FTUS41 KRNK 190533
TAFROA
TAF
KROA 190533Z 1906/2006 02006KT 5SM -RA BR FEW010 OVC022
     FM191300 30003KT 5SM -SHRA BR OVC009
     FM191500 34004KT 6SM -SHRA OVC018
     FM191800 07005KT P6SM -SHRA BKN035
     FM200000 VRB03KT 6SM HZ SCT035 BKN250=



000
FTUS41 KRNK 190533
TAFBLF
TAF
KBLF 190533Z 1906/2006 28005KT P6SM OVC006
      TEMPO 1908/1911 1/2SM -DZ FG OVC002
     FM191400 30007KT P6SM BKN015=



000
FTUS41 KRNK 190533
TAFDAN
TAF
KDAN 190533Z 1906/2006 00000KT 3/4SM BR VCSH FEW006 SCT045
      TEMPO 1906/1908 BKN004
     FM190900 00000KT 5SM -DZ BR OVC004
     FM191400 35005KT P6SM BKN020=



000
FTUS41 KRNK 190533
TAFLWB
TAF
KLWB 190533Z 1906/2006 00000KT P6SM VCSH BKN026 OVC030
     FM191400 30007KT P6SM BKN015=



000
FTUS41 KRNK 190533
TAFLWB
TAF
KLWB 190533Z 1906/2006 00000KT P6SM VCSH BKN026 OVC030
     FM191400 30007KT P6SM BKN015=



000
FTUS41 KRNK 190533
TAFBLF
TAF
KBLF 190533Z 1906/2006 28005KT P6SM OVC006
      TEMPO 1908/1911 1/2SM -DZ FG OVC002
     FM191400 30007KT P6SM BKN015=



000
FTUS41 KRNK 190533
TAFDAN
TAF
KDAN 190533Z 1906/2006 00000KT 3/4SM BR VCSH FEW006 SCT045
      TEMPO 1906/1908 BKN004
     FM190900 00000KT 5SM -DZ BR OVC004
     FM191400 35005KT P6SM BKN020=



000
FTUS41 KRNK 190533
TAFROA
TAF
KROA 190533Z 1906/2006 02006KT 5SM -RA BR FEW010 OVC022
     FM191300 30003KT 5SM -SHRA BR OVC009
     FM191500 34004KT 6SM -SHRA OVC018
     FM191800 07005KT P6SM -SHRA BKN035
     FM200000 VRB03KT 6SM HZ SCT035 BKN250=



000
FTUS41 KRNK 190533
TAFLYH
TAF
KLYH 190533Z 1906/2006 00000KT 4SM -RA BR BKN003 BKN024 OVC035
     FM190900 00000KT 5SM BR OVC008
      TEMPO 1909/1913 3SM -DZ BR OVC004
     FM191400 35005KT P6SM BKN020=



000
FTUS41 KRNK 190407 AAA
TAFLWB
TAF AMD
KLWB 190407Z 1904/1924 00000KT 5SM -DZ VCSH SCT012 OVC018
     FM190600 29005KT 2SM -DZ BR VCSH SCT007 OVC012
     FM191400 30007KT P6SM BKN015=



000
FTUS41 KRNK 190407 AAA
TAFLWB
TAF AMD
KLWB 190407Z 1904/1924 00000KT 5SM -DZ VCSH SCT012 OVC018
     FM190600 29005KT 2SM -DZ BR VCSH SCT007 OVC012
     FM191400 30007KT P6SM BKN015=



000
FTUS41 KRNK 190406 AAA
TAFBLF
TAF AMD
KBLF 190406Z 1904/1924 27006KT P6SM VCSH OVC004
     FM190500 29005KT 2SM -DZ BR OVC003
      TEMPO 1908/1911 1/2SM -DZ FG OVC002
     FM191400 30007KT P6SM BKN015=



000
FTUS41 KRNK 190406 AAA
TAFBLF
TAF AMD
KBLF 190406Z 1904/1924 27006KT P6SM VCSH OVC004
     FM190500 29005KT 2SM -DZ BR OVC003
      TEMPO 1908/1911 1/2SM -DZ FG OVC002
     FM191400 30007KT P6SM BKN015=



000
FTUS41 KRNK 190405 AAA
TAFDAN
TAF AMD
KDAN 190405Z 1904/1924 VRB04KT 5SM BR VCSH SCT004 OVC015
      TEMPO 1904/1908 BKN004
     FM190900 00000KT 5SM -DZ BR OVC004
     FM191400 35005KT P6SM BKN020=



000
FTUS41 KRNK 190405 AAA
TAFDAN
TAF AMD
KDAN 190405Z 1904/1924 VRB04KT 5SM BR VCSH SCT004 OVC015
      TEMPO 1904/1908 BKN004
     FM190900 00000KT 5SM -DZ BR OVC004
     FM191400 35005KT P6SM BKN020=



000
FTUS41 KRNK 182320
TAFROA
TAF
KROA 182320Z 1900/1924 12003KT 6SM BR VCSH BKN015 OVC025
      TEMPO 1900/1901 3SM -SHRA BR OVC008
     FM190200 30003KT 6SM BR SCT025 OVC040
      TEMPO 1909/1913 3SM -DZ BR SCT008 OVC025
     FM191400 30007KT P6SM BKN020=



000
FTUS41 KRNK 182320
TAFDAN
TAF
KDAN 182320Z 1900/1924 VRB04KT 6SM BR VCSH SCT025 OVC040
     FM190500 00000KT 6SM BR SCT008 OVC025
     FM190900 00000KT 5SM BR OVC008
      TEMPO 1909/1913 3SM -DZ BR OVC004
     FM191400 35005KT P6SM BKN020=



000
FTUS41 KRNK 182320
TAFLWB
TAF
KLWB 182320Z 1900/1924 00000KT 3SM -RADZ SCT015 OVC025
      TEMPO 1900/1902 2SM -DZ OVC015
     FM190200 29005KT 1/2SM -DZ FG OVC001
     FM191400 30007KT P6SM BKN015=



000
FTUS41 KRNK 182320
TAFBLF
TAF
KBLF 182320Z 1900/1924 27008KT P6SM VCSH OVC006
     FM190500 29005KT 3SM -DZ BR OVC006
      TEMPO 1908/1911 1/2SM DZ FG OVC002
     FM191400 30007KT P6SM BKN015=



000
FTUS41 KRNK 182320
TAFLYH
TAF
KLYH 182320Z 1900/1924 14003KT 6SM BR VCSH BKN025 OVC035
     FM190400 00000KT 6SM BR SCT008 OVC025
     FM190900 00000KT 5SM BR OVC008
      TEMPO 1909/1913 3SM -DZ BR OVC004
     FM191400 35005KT P6SM BKN020=



000
FTUS41 KRNK 182320
TAFBLF
TAF
KBLF 182320Z 1900/1924 27008KT P6SM VCSH OVC006
     FM190500 29005KT 3SM -DZ BR OVC006
      TEMPO 1908/1911 1/2SM DZ FG OVC002
     FM191400 30007KT P6SM BKN015=



000
FTUS41 KRNK 182320
TAFDAN
TAF
KDAN 182320Z 1900/1924 VRB04KT 6SM BR VCSH SCT025 OVC040
     FM190500 00000KT 6SM BR SCT008 OVC025
     FM190900 00000KT 5SM BR OVC008
      TEMPO 1909/1913 3SM -DZ BR OVC004
     FM191400 35005KT P6SM BKN020=



000
FTUS41 KRNK 182320
TAFLYH
TAF
KLYH 182320Z 1900/1924 14003KT 6SM BR VCSH BKN025 OVC035
     FM190400 00000KT 6SM BR SCT008 OVC025
     FM190900 00000KT 5SM BR OVC008
      TEMPO 1909/1913 3SM -DZ BR OVC004
     FM191400 35005KT P6SM BKN020=



000
FTUS41 KRNK 182320
TAFLWB
TAF
KLWB 182320Z 1900/1924 00000KT 3SM -RADZ SCT015 OVC025
      TEMPO 1900/1902 2SM -DZ OVC015
     FM190200 29005KT 1/2SM -DZ FG OVC001
     FM191400 30007KT P6SM BKN015=



000
FTUS41 KRNK 182320
TAFROA
TAF
KROA 182320Z 1900/1924 12003KT 6SM BR VCSH BKN015 OVC025
      TEMPO 1900/1901 3SM -SHRA BR OVC008
     FM190200 30003KT 6SM BR SCT025 OVC040
      TEMPO 1909/1913 3SM -DZ BR SCT008 OVC025
     FM191400 30007KT P6SM BKN020=



000
FTUS41 KRNK 182207 AAB
TAFROA
TAF AMD
KROA 182207Z 1822/1918 13006KT 6SM -SHRA BR SCT005 OVC025
      TEMPO 1822/1823 6SM SHRA BKN005
     FM190500 30005KT 5SM BR OVC008
      TEMPO 1909/1913 3SM -DZ BR OVC004
     FM191400 30007KT P6SM BKN020=



000
FTUS41 KRNK 182207 AAB
TAFROA
TAF AMD
KROA 182207Z 1822/1918 13006KT 6SM -SHRA BR SCT005 OVC025
      TEMPO 1822/1823 6SM SHRA BKN005
     FM190500 30005KT 5SM BR OVC008
      TEMPO 1909/1913 3SM -DZ BR OVC004
     FM191400 30007KT P6SM BKN020=



000
FTUS41 KRNK 181952 AAB
TAFDAN
TAF AMD
KDAN 181952Z 1820/1918 08005KT P6SM SCT015 BKN040
      TEMPO 1820/1823 4SM -SHRA SCT006 BKN020
     FM182300 VRB04KT P6SM SCT012 OVC030
      TEMPO 1823/1903 -SHRA BKN012
     FM190900 00000KT 5SM BR OVC008
      TEMPO 1909/1913 3SM -DZ BR OVC004
     FM191400 35005KT P6SM BKN020=



000
FTUS41 KRNK 181952 AAB
TAFDAN
TAF AMD
KDAN 181952Z 1820/1918 08005KT P6SM SCT015 BKN040
      TEMPO 1820/1823 4SM -SHRA SCT006 BKN020
     FM182300 VRB04KT P6SM SCT012 OVC030
      TEMPO 1823/1903 -SHRA BKN012
     FM190900 00000KT 5SM BR OVC008
      TEMPO 1909/1913 3SM -DZ BR OVC004
     FM191400 35005KT P6SM BKN020=



000
FTUS41 KRNK 181924 AAA
TAFROA
TAF AMD
KROA 181924Z 1819/1918 13009KT 3SM -SHRA BR OVC008
      TEMPO 1819/1822 1SM SHRA SCT007 BKN020
     FM182200 VRB04KT 6SM -SHRA SCT015 OVC025
     FM190500 30005KT 5SM BR OVC008
      TEMPO 1909/1913 3SM -DZ BR OVC004
     FM191400 30007KT P6SM BKN020=



000
FTUS41 KRNK 181924 AAA
TAFROA
TAF AMD
KROA 181924Z 1819/1918 13009KT 3SM -SHRA BR OVC008
      TEMPO 1819/1822 1SM SHRA SCT007 BKN020
     FM182200 VRB04KT 6SM -SHRA SCT015 OVC025
     FM190500 30005KT 5SM BR OVC008
      TEMPO 1909/1913 3SM -DZ BR OVC004
     FM191400 30007KT P6SM BKN020=



000
FTUS41 KRNK 181833 AAA
TAFBLF
TAF AMD
KBLF 181833Z 1819/1918 25011KT P6SM -RA BKN010 OVC035
      TEMPO 1819/1822 2SM SHRA SCT007 BKN020
     FM182200 24004KT 6SM -SHRA SCT015 OVC025
     FM190500 29005KT 1SM -DZ BR OVC007
      TEMPO 1909/1913 1/2SM DZ FG OVC002
     FM191400 30007KT P6SM BKN015=



000
FTUS41 KRNK 181833 AAA
TAFBLF
TAF AMD
KBLF 181833Z 1819/1918 25011KT P6SM -RA BKN010 OVC035
      TEMPO 1819/1822 2SM SHRA SCT007 BKN020
     FM182200 24004KT 6SM -SHRA SCT015 OVC025
     FM190500 29005KT 1SM -DZ BR OVC007
      TEMPO 1909/1913 1/2SM DZ FG OVC002
     FM191400 30007KT P6SM BKN015=



000
FTUS41 KRNK 181832 AAA
TAFLYH
TAF AMD
KLYH 181832Z 1819/1918 00000KT 4SM -RA BR BKN007 OVC050
      TEMPO 1819/1823 2SM SHRA SCT007 BKN020
     FM182300 VRB04KT 6SM -SHRA SCT015 OVC025
     FM190500 00000KT P6SM OVC015
     FM190900 00000KT 5SM BR OVC008
      TEMPO 1909/1913 3SM -DZ BR OVC004
     FM191400 35005KT P6SM BKN020=



000
FTUS41 KRNK 181832 AAA
TAFLYH
TAF AMD
KLYH 181832Z 1819/1918 00000KT 4SM -RA BR BKN007 OVC050
      TEMPO 1819/1823 2SM SHRA SCT007 BKN020
     FM182300 VRB04KT 6SM -SHRA SCT015 OVC025
     FM190500 00000KT P6SM OVC015
     FM190900 00000KT 5SM BR OVC008
      TEMPO 1909/1913 3SM -DZ BR OVC004
     FM191400 35005KT P6SM BKN020=



000
FTUS41 KRNK 181832 AAA
TAFDAN
TAF AMD
KDAN 181832Z 1819/1918 06005KT P6SM -SHRA BKN006 OVC050
      TEMPO 1819/1823 4SM -SHRA SCT006 BKN020
     FM182300 VRB04KT P6SM SCT012 OVC030
      TEMPO 1823/1903 -SHRA BKN012
     FM190900 00000KT 5SM BR OVC008
      TEMPO 1909/1913 3SM -DZ BR OVC004
     FM191400 35005KT P6SM BKN020=



000
FTUS41 KRNK 181832 AAA
TAFDAN
TAF AMD
KDAN 181832Z 1819/1918 06005KT P6SM -SHRA BKN006 OVC050
      TEMPO 1819/1823 4SM -SHRA SCT006 BKN020
     FM182300 VRB04KT P6SM SCT012 OVC030
      TEMPO 1823/1903 -SHRA BKN012
     FM190900 00000KT 5SM BR OVC008
      TEMPO 1909/1913 3SM -DZ BR OVC004
     FM191400 35005KT P6SM BKN020=



000
FTUS41 KRNK 181723
TAFBLF
TAF
KBLF 181723Z 1818/1918 20005KT 4SM -SHRA BR SCT020 OVC050
      TEMPO 1818/1822 2SM SHRA SCT007 BKN020
     FM182200 24004KT 6SM -SHRA SCT015 OVC025
     FM190500 29005KT 1SM -DZ BR OVC007
      TEMPO 1909/1913 1/2SM DZ FG OVC002
     FM191400 30007KT P6SM BKN015=



000
FTUS41 KRNK 181723
TAFROA
TAF
KROA 181723Z 1818/1918 13004KT 5SM -SHRA BR SCT010 OVC050
      TEMPO 1818/1822 2SM SHRA SCT007 BKN020
     FM182200 VRB04KT 6SM -SHRA SCT015 OVC025
     FM190500 30005KT 5SM BR OVC008
      TEMPO 1909/1913 3SM -DZ BR OVC004
     FM191400 30007KT P6SM BKN020=



000
FTUS41 KRNK 181723
TAFDAN
TAF
KDAN 181723Z 1818/1918 05004KT P6SM SCT020 OVC050
      TEMPO 1819/1823 4SM -SHRA SCT007 BKN020
     FM182300 VRB04KT P6SM SCT012 OVC030
      TEMPO 1823/1903 -SHRA BKN012
     FM190900 00000KT 5SM BR OVC008
      TEMPO 1909/1913 3SM -DZ BR OVC004
     FM191400 35005KT P6SM BKN020=



000
FTUS41 KRNK 181723
TAFLWB
TAF
KLWB 181723Z 1818/1918 20005KT 4SM -SHRA BR SCT020 OVC050
      TEMPO 1818/1822 2SM SHRA SCT007 BKN015
     FM182200 24004KT 4SM BR SCT012 OVC025
      TEMPO 1822/1902 2SM -SHRA BKN012
     FM190500 29005KT 1/2SM -DZ FG OVC001
     FM191400 30007KT P6SM BKN015=



000
FTUS41 KRNK 181723
TAFLYH
TAF
KLYH 181723Z 1818/1918 05004KT 5SM -SHRA BR SCT010 OVC050
      TEMPO 1819/1823 2SM SHRA SCT007 BKN020
     FM182300 VRB04KT 6SM -SHRA SCT015 OVC025
     FM190500 00000KT P6SM OVC015
     FM190900 00000KT 5SM BR OVC008
      TEMPO 1909/1913 3SM -DZ BR OVC004
     FM191400 35005KT P6SM BKN020=



000
FTUS41 KRNK 181723
TAFBLF
TAF
KBLF 181723Z 1818/1918 20005KT 4SM -SHRA BR SCT020 OVC050
      TEMPO 1818/1822 2SM SHRA SCT007 BKN020
     FM182200 24004KT 6SM -SHRA SCT015 OVC025
     FM190500 29005KT 1SM -DZ BR OVC007
      TEMPO 1909/1913 1/2SM DZ FG OVC002
     FM191400 30007KT P6SM BKN015=



000
FTUS41 KRNK 181723
TAFDAN
TAF
KDAN 181723Z 1818/1918 05004KT P6SM SCT020 OVC050
      TEMPO 1819/1823 4SM -SHRA SCT007 BKN020
     FM182300 VRB04KT P6SM SCT012 OVC030
      TEMPO 1823/1903 -SHRA BKN012
     FM190900 00000KT 5SM BR OVC008
      TEMPO 1909/1913 3SM -DZ BR OVC004
     FM191400 35005KT P6SM BKN020=



000
FTUS41 KRNK 181723
TAFLYH
TAF
KLYH 181723Z 1818/1918 05004KT 5SM -SHRA BR SCT010 OVC050
      TEMPO 1819/1823 2SM SHRA SCT007 BKN020
     FM182300 VRB04KT 6SM -SHRA SCT015 OVC025
     FM190500 00000KT P6SM OVC015
     FM190900 00000KT 5SM BR OVC008
      TEMPO 1909/1913 3SM -DZ BR OVC004
     FM191400 35005KT P6SM BKN020=



000
FTUS41 KRNK 181723
TAFLWB
TAF
KLWB 181723Z 1818/1918 20005KT 4SM -SHRA BR SCT020 OVC050
      TEMPO 1818/1822 2SM SHRA SCT007 BKN015
     FM182200 24004KT 4SM BR SCT012 OVC025
      TEMPO 1822/1902 2SM -SHRA BKN012
     FM190500 29005KT 1/2SM -DZ FG OVC001
     FM191400 30007KT P6SM BKN015=



000
FTUS41 KRNK 181723
TAFROA
TAF
KROA 181723Z 1818/1918 13004KT 5SM -SHRA BR SCT010 OVC050
      TEMPO 1818/1822 2SM SHRA SCT007 BKN020
     FM182200 VRB04KT 6SM -SHRA SCT015 OVC025
     FM190500 30005KT 5SM BR OVC008
      TEMPO 1909/1913 3SM -DZ BR OVC004
     FM191400 30007KT P6SM BKN020=



000
FTUS41 KRNK 181516 AAA
TAFROA
TAF AMD
KROA 181516Z 1815/1912 VRB03KT 6SM -SHRA SCT025 BKN060
      TEMPO 1817/1820 4SM SHRA BR SCT015 OVC025
     FM182300 14004KT 6SM -SHRA BR SCT025 OVC035
     FM190300 23003KT P6SM SCT007 OVC020=



000
FTUS41 KRNK 181516 AAA
TAFROA
TAF AMD
KROA 181516Z 1815/1912 VRB03KT 6SM -SHRA SCT025 BKN060
      TEMPO 1817/1820 4SM SHRA BR SCT015 OVC025
     FM182300 14004KT 6SM -SHRA BR SCT025 OVC035
     FM190300 23003KT P6SM SCT007 OVC020=



000
FTUS41 KRNK 181514 AAA
TAFDAN
TAF AMD
KDAN 181514Z 1815/1912 24005KT P6SM -SHRA SCT025 BKN060
      TEMPO 1815/1816 3SM SHRA BKN025
     FM181800 23008KT 5SM SHRA BR SCT025 BKN035 OVC050
     FM190200 26002KT P6SM OVC035
     FM190600 08003KT 2SM BR OVC007=



000
FTUS41 KRNK 181514 AAA
TAFDAN
TAF AMD
KDAN 181514Z 1815/1912 24005KT P6SM -SHRA SCT025 BKN060
      TEMPO 1815/1816 3SM SHRA BKN025
     FM181800 23008KT 5SM SHRA BR SCT025 BKN035 OVC050
     FM190200 26002KT P6SM OVC035
     FM190600 08003KT 2SM BR OVC007=



000
FTUS41 KRNK 181139
TAFROA
TAF
KROA 181139Z 1812/1912 VRB03KT 6SM -SHRA SCT025 BKN035
     FM181600 20005KT 4SM SHRA BR OVC025
     FM182300 14004KT 6SM -SHRA BR SCT025 OVC035
     FM190300 23003KT P6SM SCT007 OVC020=



000
FTUS41 KRNK 181139
TAFDAN
TAF
KDAN 181139Z 1812/1912 24005KT P6SM -SHRA SCT025 BKN060
      TEMPO 1812/1813 4SM BR
     FM181800 23008KT 5SM SHRA BR SCT025 BKN035 OVC050
     FM190200 26002KT P6SM OVC035
     FM190600 08003KT 2SM BR OVC007=



000
FTUS41 KRNK 181139
TAFBLF
TAF
KBLF 181139Z 1812/1912 22004KT 6SM -SHRA BR SCT025 OVC035
      TEMPO 1812/1816 4SM TSRA OVC025CB
     FM181800 25006KT 5SM SHRA SCT015 OVC025
     FM190300 28005KT 2SM BR OVC015=



000
FTUS41 KRNK 181139
TAFLWB
TAF
KLWB 181139Z 1812/1912 00000KT 4SM -RA BR SCT001 OVC060
     FM181400 22004KT 3SM RA BR SCT002 OVC035
      TEMPO 1814/1818 2SM TSRA OVC025CB
     FM181800 22008KT 6SM -SHRA BR BKN015 OVC025
     FM190000 21001KT P6SM BKN050
     FM190500 26001KT 1/4SM FG OVC001=



000
FTUS41 KRNK 181139
TAFLYH
TAF
KLYH 181139Z 1812/1912 VRB03KT 6SM -SHRA SCT025 BKN035
      TEMPO 1812/1813 4SM BR
     FM181700 12003KT 5SM SHRA BR OVC022
     FM190000 08003KT 2SM BR OVC007=



000
FTUS41 KRNK 181139
TAFBLF
TAF
KBLF 181139Z 1812/1912 22004KT 6SM -SHRA BR SCT025 OVC035
      TEMPO 1812/1816 4SM TSRA OVC025CB
     FM181800 25006KT 5SM SHRA SCT015 OVC025
     FM190300 28005KT 2SM BR OVC015=



000
FTUS41 KRNK 181139
TAFLYH
TAF
KLYH 181139Z 1812/1912 VRB03KT 6SM -SHRA SCT025 BKN035
      TEMPO 1812/1813 4SM BR
     FM181700 12003KT 5SM SHRA BR OVC022
     FM190000 08003KT 2SM BR OVC007=



000
FTUS41 KRNK 181139
TAFDAN
TAF
KDAN 181139Z 1812/1912 24005KT P6SM -SHRA SCT025 BKN060
      TEMPO 1812/1813 4SM BR
     FM181800 23008KT 5SM SHRA BR SCT025 BKN035 OVC050
     FM190200 26002KT P6SM OVC035
     FM190600 08003KT 2SM BR OVC007=



000
FTUS41 KRNK 181139
TAFLWB
TAF
KLWB 181139Z 1812/1912 00000KT 4SM -RA BR SCT001 OVC060
     FM181400 22004KT 3SM RA BR SCT002 OVC035
      TEMPO 1814/1818 2SM TSRA OVC025CB
     FM181800 22008KT 6SM -SHRA BR BKN015 OVC025
     FM190000 21001KT P6SM BKN050
     FM190500 26001KT 1/4SM FG OVC001=



000
FTUS41 KRNK 181139
TAFROA
TAF
KROA 181139Z 1812/1912 VRB03KT 6SM -SHRA SCT025 BKN035
     FM181600 20005KT 4SM SHRA BR OVC025
     FM182300 14004KT 6SM -SHRA BR SCT025 OVC035
     FM190300 23003KT P6SM SCT007 OVC020=



000
FTUS41 KRNK 181004 AAA
TAFLWB
TAF AMD
KLWB 181004Z 1810/1906 00000KT 1 1/2SM BR BKN001 OVC090
     FM181400 22004KT 6SM -SHRA BR BKN025
     FM181800 22008KT 6SM -SHRA BR BKN015 OVC025
     FM190000 21001KT P6SM SCT050
     FM190500 26001KT 1/4SM FG OVC001=



000
FTUS41 KRNK 181004 AAA
TAFLWB
TAF AMD
KLWB 181004Z 1810/1906 00000KT 1 1/2SM BR BKN001 OVC090
     FM181400 22004KT 6SM -SHRA BR BKN025
     FM181800 22008KT 6SM -SHRA BR BKN015 OVC025
     FM190000 21001KT P6SM SCT050
     FM190500 26001KT 1/4SM FG OVC001=



000
FTUS41 KRNK 180541
TAFLWB
TAF
KLWB 180541Z 1806/1906 00000KT P6SM BKN250
     FM181000 00000KT 2SM -SHRA BR FEW025 BKN040
     FM181400 22004KT 6SM -SHRA BR BKN025
     FM181800 22008KT 6SM -SHRA BR BKN015 OVC025
     FM190000 21001KT P6SM SCT050
     FM190500 26001KT 1/4SM FG OVC001=



000
FTUS41 KRNK 180541
TAFROA
TAF
KROA 180541Z 1806/1906 00000KT P6SM FEW090 SCT120
     FM181100 VRB03KT 6SM -SHRA SCT025 BKN035
     FM181800 20006KT 4SM -SHRA BR OVC025
     FM182300 14004KT 6SM -SHRA BR SCT025 OVC035
     FM190300 23004KT P6SM OVC025=



000
FTUS41 KRNK 180541
TAFLYH
TAF
KLYH 180541Z 1806/1906 00000KT P6SM FEW110 BKN250
     FM181200 VRB03KT 6SM -SHRA SCT025 BKN035
     FM181900 12003KT 5SM -SHRA BR OVC022
     FM190000 14003KT 6SM BR OVC012=



000
FTUS41 KRNK 180541
TAFBLF
TAF
KBLF 180541Z 1806/1906 00000KT P6SM OVC110
     FM181100 22004KT 6SM -SHRA BR SCT025 OVC035
     FM181800 25006KT 6SM -SHRA BR SCT015 OVC025
     FM190300 28005KT 4SM BR OVC015=



000
FTUS41 KRNK 180541
TAFBLF
TAF
KBLF 180541Z 1806/1906 00000KT P6SM OVC110
     FM181100 22004KT 6SM -SHRA BR SCT025 OVC035
     FM181800 25006KT 6SM -SHRA BR SCT015 OVC025
     FM190300 28005KT 4SM BR OVC015=



000
FTUS41 KRNK 180541
TAFLWB
TAF
KLWB 180541Z 1806/1906 00000KT P6SM BKN250
     FM181000 00000KT 2SM -SHRA BR FEW025 BKN040
     FM181400 22004KT 6SM -SHRA BR BKN025
     FM181800 22008KT 6SM -SHRA BR BKN015 OVC025
     FM190000 21001KT P6SM SCT050
     FM190500 26001KT 1/4SM FG OVC001=



000
FTUS41 KRNK 180541
TAFDAN
TAF
KDAN 180541Z 1806/1906 00000KT 6SM BR BKN250
     FM181200 24005KT P6SM -SHRA SCT025 BKN060
     FM181800 23008KT 6SM -SHRA BR SCT025 BKN035
     FM190200 26002KT P6SM OVC035=



000
FTUS41 KRNK 180541
TAFROA
TAF
KROA 180541Z 1806/1906 00000KT P6SM FEW090 SCT120
     FM181100 VRB03KT 6SM -SHRA SCT025 BKN035
     FM181800 20006KT 4SM -SHRA BR OVC025
     FM182300 14004KT 6SM -SHRA BR SCT025 OVC035
     FM190300 23004KT P6SM OVC025=



000
FTUS41 KRNK 180541
TAFLYH
TAF
KLYH 180541Z 1806/1906 00000KT P6SM FEW110 BKN250
     FM181200 VRB03KT 6SM -SHRA SCT025 BKN035
     FM181900 12003KT 5SM -SHRA BR OVC022
     FM190000 14003KT 6SM BR OVC012=



000
FTUS41 KRNK 180541
TAFDAN
TAF
KDAN 180541Z 1806/1906 00000KT 6SM BR BKN250
     FM181200 24005KT P6SM -SHRA SCT025 BKN060
     FM181800 23008KT 6SM -SHRA BR SCT025 BKN035
     FM190200 26002KT P6SM OVC035=



000
FTUS41 KRNK 180147 AAA
TAFBLF
TAF AMD
KBLF 180147Z 1802/1824 24003KT P6SM VCSH SCT040 BKN120
     FM180600 23003KT P6SM VCSH FEW025 BKN050
      TEMPO 1806/1809 -SHRA
     FM181100 22008KT 4SM -SHRA BKN025 OVC040
      TEMPO 1816/1820 2SM TSRA BKN015CB
     FM182000 27010KT 4SM SHRA SCT015 OVC025=



000
FTUS41 KRNK 180147 AAA
TAFBLF
TAF AMD
KBLF 180147Z 1802/1824 24003KT P6SM VCSH SCT040 BKN120
     FM180600 23003KT P6SM VCSH FEW025 BKN050
      TEMPO 1806/1809 -SHRA
     FM181100 22008KT 4SM -SHRA BKN025 OVC040
      TEMPO 1816/1820 2SM TSRA BKN015CB
     FM182000 27010KT 4SM SHRA SCT015 OVC025=



000
FTUS41 KRNK 180145 AAA
TAFDAN
TAF AMD
KDAN 180145Z 1802/1824 23003KT P6SM VCSH FEW050 OVC080
     FM180500 00000KT P6SM OVC050
      TEMPO 1809/1812 4SM -SHRA BR
     FM181500 24005KT P6SM VCSH FEW025 OVC050
     FM181800 23008KT 4SM -SHRA BKN025 OVC040=



000
FTUS41 KRNK 180145 AAA
TAFDAN
TAF AMD
KDAN 180145Z 1802/1824 23003KT P6SM VCSH FEW050 OVC080
     FM180500 00000KT P6SM OVC050
      TEMPO 1809/1812 4SM -SHRA BR
     FM181500 24005KT P6SM VCSH FEW025 OVC050
     FM181800 23008KT 4SM -SHRA BKN025 OVC040=



000
FTUS41 KRNK 180144 AAA
TAFLYH
TAF AMD
KLYH 180144Z 1802/1824 00000KT P6SM OVC080
     FM180900 20004KT P6SM VCSH FEW025 OVC050
      TEMPO 1809/1812 4SM -SHRA BR
     FM181800 20007KT 4SM -SHRA BKN025 OVC040
     FM182200 20006KT 4SM -SHRA BR OVC015=



000
FTUS41 KRNK 180144 AAA
TAFLYH
TAF AMD
KLYH 180144Z 1802/1824 00000KT P6SM OVC080
     FM180900 20004KT P6SM VCSH FEW025 OVC050
      TEMPO 1809/1812 4SM -SHRA BR
     FM181800 20007KT 4SM -SHRA BKN025 OVC040
     FM182200 20006KT 4SM -SHRA BR OVC015=



000
FTUS41 KRNK 180143 AAA
TAFROA
TAF AMD
KROA 180143Z 1802/1824 25003KT P6SM SCT050 BKN080
     FM180500 VRB03KT P6SM VCSH SCT040 OVC080
      TEMPO 1805/1809 -SHRA
     FM181000 VRB03KT P6SM VCSH FEW025 BKN050
      TEMPO 1810/1813 4SM BR
     FM181600 20006KT 4SM -SHRA BKN025 OVC040=



000
FTUS41 KRNK 180143 AAA
TAFROA
TAF AMD
KROA 180143Z 1802/1824 25003KT P6SM SCT050 BKN080
     FM180500 VRB03KT P6SM VCSH SCT040 OVC080
      TEMPO 1805/1809 -SHRA
     FM181000 VRB03KT P6SM VCSH FEW025 BKN050
      TEMPO 1810/1813 4SM BR
     FM181600 20006KT 4SM -SHRA BKN025 OVC040=



000
FTUS41 KRNK 172340
TAFLYH
TAF
KLYH 172340Z 1800/1824 00000KT P6SM OVC070
     FM181000 20004KT P6SM VCSH FEW025 OVC050
      TEMPO 1810/1812 4SM BR
     FM181800 20007KT 4SM -SHRA BKN025 OVC040
     FM182200 20006KT 4SM -SHRA BR OVC015=



000
FTUS41 KRNK 172340
TAFLWB
TAF
KLWB 172340Z 1800/1824 00000KT P6SM VCSH SCT070 OVC150
      TEMPO 1800/1802 6SM -SHRA BKN060
     FM180200 00000KT 6SM -SHRA BKN040 BKN120
     FM180500 00000KT 4SM BR VCSH SCT040 BKN080
     FM181000 00000KT 2SM -SHRA BR FEW025 BKN040
     FM181400 22004KT 4SM -SHRA BR BKN025
     FM181800 22008KT 4SM SHRA BR BKN015 OVC025=



000
FTUS41 KRNK 172340
TAFLWB
TAF
KLWB 172340Z 1800/1824 00000KT P6SM VCSH SCT070 OVC150
      TEMPO 1800/1802 6SM -SHRA BKN060
     FM180200 00000KT 6SM -SHRA BKN040 BKN120
     FM180500 00000KT 4SM BR VCSH SCT040 BKN080
     FM181000 00000KT 2SM -SHRA BR FEW025 BKN040
     FM181400 22004KT 4SM -SHRA BR BKN025
     FM181800 22008KT 4SM SHRA BR BKN015 OVC025=



000
FTUS41 KRNK 172340
TAFDAN
TAF
KDAN 172340Z 1800/1824 23003KT P6SM VCSH FEW050 OVC080
     FM180500 00000KT P6SM OVC050
      TEMPO 1810/1812 4SM BR
     FM181500 24005KT P6SM VCSH FEW025 OVC050
     FM181800 23008KT 4SM -SHRA BKN025 OVC040=



000
FTUS41 KRNK 172340
TAFROA
TAF
KROA 172340Z 1800/1824 31007KT P6SM BKN080
     FM180400 VRB03KT P6SM VCSH SCT040 OVC080
      TEMPO 1804/1807 -SHRA
     FM181000 VRB03KT P6SM VCSH FEW025 BKN050
      TEMPO 1810/1813 4SM BR
     FM181600 20006KT 4SM -SHRA BKN025 OVC040=



000
FTUS41 KRNK 172340
TAFLYH
TAF
KLYH 172340Z 1800/1824 00000KT P6SM OVC070
     FM181000 20004KT P6SM VCSH FEW025 OVC050
      TEMPO 1810/1812 4SM BR
     FM181800 20007KT 4SM -SHRA BKN025 OVC040
     FM182200 20006KT 4SM -SHRA BR OVC015=



000
FTUS41 KRNK 172340
TAFROA
TAF
KROA 172340Z 1800/1824 31007KT P6SM BKN080
     FM180400 VRB03KT P6SM VCSH SCT040 OVC080
      TEMPO 1804/1807 -SHRA
     FM181000 VRB03KT P6SM VCSH FEW025 BKN050
      TEMPO 1810/1813 4SM BR
     FM181600 20006KT 4SM -SHRA BKN025 OVC040=



000
FTUS41 KRNK 172340
TAFBLF
TAF
KBLF 172340Z 1800/1824 22003KT P6SM VCSH BKN035
     FM180100 23003KT 6SM -SHRA BKN040 BKN120
     FM180800 23003KT P6SM VCSH FEW025 BKN050
     FM181100 22008KT 4SM -SHRA BKN025 OVC040
      TEMPO 1816/1820 2SM TSRA BKN015CB
     FM182000 27010KT 4SM SHRA SCT015 OVC025=



000
FTUS41 KRNK 172340
TAFBLF
TAF
KBLF 172340Z 1800/1824 22003KT P6SM VCSH BKN035
     FM180100 23003KT 6SM -SHRA BKN040 BKN120
     FM180800 23003KT P6SM VCSH FEW025 BKN050
     FM181100 22008KT 4SM -SHRA BKN025 OVC040
      TEMPO 1816/1820 2SM TSRA BKN015CB
     FM182000 27010KT 4SM SHRA SCT015 OVC025=



000
FTUS41 KRNK 172340
TAFDAN
TAF
KDAN 172340Z 1800/1824 23003KT P6SM VCSH FEW050 OVC080
     FM180500 00000KT P6SM OVC050
      TEMPO 1810/1812 4SM BR
     FM181500 24005KT P6SM VCSH FEW025 OVC050
     FM181800 23008KT 4SM -SHRA BKN025 OVC040=



000
FTUS41 KRNK 172226 AAB
TAFLYH
TAF AMD
KLYH 172226Z 1722/1818 VRB03KT P6SM VCSH BKN060
     FM180100 VRB03KT P6SM SCT060 BKN120
      TEMPO 1807/1810 5SM BR
     FM181000 VRB03KT P6SM BKN060
      TEMPO 1810/1813 3SM -SHRA BR BKN040
     FM181300 23005KT P6SM -SHRA BKN040
      TEMPO 1815/1818 2SM -TSRA BR BKN025CB=



000
FTUS41 KRNK 172226 AAB
TAFLYH
TAF AMD
KLYH 172226Z 1722/1818 VRB03KT P6SM VCSH BKN060
     FM180100 VRB03KT P6SM SCT060 BKN120
      TEMPO 1807/1810 5SM BR
     FM181000 VRB03KT P6SM BKN060
      TEMPO 1810/1813 3SM -SHRA BR BKN040
     FM181300 23005KT P6SM -SHRA BKN040
      TEMPO 1815/1818 2SM -TSRA BR BKN025CB=



000
FTUS41 KRNK 172225 AAA
TAFBLF
TAF AMD
KBLF 172225Z 1722/1818 26007KT P6SM VCSH BKN035
     FM180100 25006KT 6SM -SHRA BKN040 BKN120
      TEMPO 1804/1807 5SM BR
     FM180700 25005KT P6SM BKN050
      TEMPO 1807/1810 3SM -SHRA BR BKN030
     FM181000 25008KT P6SM -SHRA BKN035
      TEMPO 1815/1818 2SM -TSRA BR BKN025CB=



000
FTUS41 KRNK 172225 AAA
TAFBLF
TAF AMD
KBLF 172225Z 1722/1818 26007KT P6SM VCSH BKN035
     FM180100 25006KT 6SM -SHRA BKN040 BKN120
      TEMPO 1804/1807 5SM BR
     FM180700 25005KT P6SM BKN050
      TEMPO 1807/1810 3SM -SHRA BR BKN030
     FM181000 25008KT P6SM -SHRA BKN035
      TEMPO 1815/1818 2SM -TSRA BR BKN025CB=



000
FTUS41 KRNK 172134 AAA
TAFLYH
TAF AMD
KLYH 172134Z 1722/1818 23006KT P6SM VCSH BKN050
      TEMPO 1722/1723 4SM SHRA
     FM180100 VRB03KT P6SM SCT060 BKN120
      TEMPO 1807/1810 5SM BR
     FM181000 VRB03KT P6SM BKN060
      TEMPO 1810/1813 3SM -SHRA BR BKN040
     FM181300 23005KT P6SM -SHRA BKN040
      TEMPO 1815/1818 2SM -TSRA BR BKN025CB=



000
FTUS41 KRNK 171720
TAFLWB
TAF
KLWB 171720Z 1718/1818 28005KT P6SM VCSH BKN035
     FM180100 VRB03KT P6SM SCT040 BKN120
      TEMPO 1804/1807 3SM BR
     FM180700 25005KT P6SM BKN050
      TEMPO 1807/1810 2SM -SHRA BR BKN030
     FM181000 25008KT P6SM -SHRA BKN035
      TEMPO 1814/1818 2SM -TSRA BR BKN025CB=



000
FTUS41 KRNK 171720
TAFLYH
TAF
KLYH 171720Z 1718/1818 23006KT P6SM VCSH BKN050
     FM180100 VRB03KT P6SM SCT060 BKN120
      TEMPO 1807/1810 5SM BR
     FM181000 VRB03KT P6SM BKN060
      TEMPO 1810/1813 3SM -SHRA BR BKN040
     FM181300 23005KT P6SM -SHRA BKN040
      TEMPO 1815/1818 2SM -TSRA BR BKN025CB=



000
FTUS41 KRNK 171720
TAFDAN
TAF
KDAN 171720Z 1718/1818 23006KT P6SM VCSH BKN050
     FM180100 VRB03KT P6SM SCT060 BKN120
      TEMPO 1806/1809 5SM BR
     FM180900 VRB03KT P6SM BKN060
      TEMPO 1809/1812 3SM -SHRA BR BKN040
     FM181200 24005KT P6SM -SHRA BKN040
      TEMPO 1815/1818 2SM -TSRA BR BKN025CB=



000
FTUS41 KRNK 171720
TAFROA
TAF
KROA 171720Z 1718/1818 25007KT P6SM VCSH BKN050
     FM180100 VRB04KT P6SM SCT060 BKN120
      TEMPO 1806/1809 5SM BR
     FM180900 VRB03KT P6SM BKN060
      TEMPO 1809/1812 3SM -SHRA BR BKN040
     FM181200 23005KT P6SM -SHRA BKN040
      TEMPO 1815/1818 2SM -TSRA BR BKN025CB=



000
FTUS41 KRNK 171720
TAFBLF
TAF
KBLF 171720Z 1718/1818 26007KT P6SM VCSH BKN035
     FM180100 25006KT P6SM SCT040 BKN120
      TEMPO 1804/1807 5SM BR
     FM180700 25005KT P6SM BKN050
      TEMPO 1807/1810 3SM -SHRA BR BKN030
     FM181000 25008KT P6SM -SHRA BKN035
      TEMPO 1815/1818 2SM -TSRA BR BKN025CB=



000
FTUS41 KRNK 171720
TAFLWB
TAF
KLWB 171720Z 1718/1818 28005KT P6SM VCSH BKN035
     FM180100 VRB03KT P6SM SCT040 BKN120
      TEMPO 1804/1807 3SM BR
     FM180700 25005KT P6SM BKN050
      TEMPO 1807/1810 2SM -SHRA BR BKN030
     FM181000 25008KT P6SM -SHRA BKN035
      TEMPO 1814/1818 2SM -TSRA BR BKN025CB=



000
FTUS41 KRNK 171720
TAFROA
TAF
KROA 171720Z 1718/1818 25007KT P6SM VCSH BKN050
     FM180100 VRB04KT P6SM SCT060 BKN120
      TEMPO 1806/1809 5SM BR
     FM180900 VRB03KT P6SM BKN060
      TEMPO 1809/1812 3SM -SHRA BR BKN040
     FM181200 23005KT P6SM -SHRA BKN040
      TEMPO 1815/1818 2SM -TSRA BR BKN025CB=



000
FTUS41 KRNK 171720
TAFDAN
TAF
KDAN 171720Z 1718/1818 23006KT P6SM VCSH BKN050
     FM180100 VRB03KT P6SM SCT060 BKN120
      TEMPO 1806/1809 5SM BR
     FM180900 VRB03KT P6SM BKN060
      TEMPO 1809/1812 3SM -SHRA BR BKN040
     FM181200 24005KT P6SM -SHRA BKN040
      TEMPO 1815/1818 2SM -TSRA BR BKN025CB=



000
FTUS41 KRNK 171720
TAFBLF
TAF
KBLF 171720Z 1718/1818 26007KT P6SM VCSH BKN035
     FM180100 25006KT P6SM SCT040 BKN120
      TEMPO 1804/1807 5SM BR
     FM180700 25005KT P6SM BKN050
      TEMPO 1807/1810 3SM -SHRA BR BKN030
     FM181000 25008KT P6SM -SHRA BKN035
      TEMPO 1815/1818 2SM -TSRA BR BKN025CB=



000
FTUS41 KRNK 171720
TAFLYH
TAF
KLYH 171720Z 1718/1818 23006KT P6SM VCSH BKN050
     FM180100 VRB03KT P6SM SCT060 BKN120
      TEMPO 1807/1810 5SM BR
     FM181000 VRB03KT P6SM BKN060
      TEMPO 1810/1813 3SM -SHRA BR BKN040
     FM181300 23005KT P6SM -SHRA BKN040
      TEMPO 1815/1818 2SM -TSRA BR BKN025CB=



    US Dept of Commerce
    National Oceanic and Atmospheric Administration
    National Weather Service
    1325 East West Highway
    Silver Spring, MD 20910
    Page Author: NWS Internet Services Team
Disclaimer
Information Quality
Credits
Glossary
Privacy Policy
Freedom of Information Act (FOIA)
About Us
Career Opportunities